createdAt,value
2023-01-20T00:01:35.948Z,2.50
2023-01-20T00:04:04.274Z,2.50
2023-01-20T00:06:32.529Z,2.40
2023-01-20T00:09:02.323Z,2.40
2023-01-20T00:11:32.056Z,2.40
2023-01-20T00:14:01.760Z,2.40
2023-01-20T00:16:31.803Z,2.50
2023-01-20T00:19:00.309Z,2.50
2023-01-20T00:21:28.704Z,2.50
2023-01-20T00:23:57.189Z,2.50
2023-01-20T00:26:26.035Z,2.50
2023-01-20T00:28:57.635Z,2.50
2023-01-20T00:31:27.236Z,2.50
2023-01-20T00:33:57.003Z,2.50
2023-01-20T00:36:25.624Z,2.50
2023-01-20T00:38:53.894Z,2.50
2023-01-20T00:41:22.246Z,2.50
2023-01-20T00:43:50.619Z,2.50
2023-01-20T00:46:20.404Z,2.50
2023-01-20T00:48:48.716Z,2.50
2023-01-20T00:51:17.025Z,2.50
2023-01-20T00:53:45.340Z,2.50
2023-01-20T00:56:13.609Z,2.50
2023-01-20T00:58:44.259Z,2.50
2023-01-20T01:01:13.010Z,2.50
2023-01-20T01:03:42.834Z,2.50
2023-01-20T01:06:12.817Z,2.50
2023-01-20T01:08:41.399Z,2.50
2023-01-20T01:11:09.911Z,2.50
2023-01-20T01:13:38.521Z,2.50
2023-01-20T01:16:10.744Z,2.50
2023-01-20T01:18:39.071Z,2.50
2023-01-20T01:21:09.954Z,2.50
2023-01-20T01:23:38.346Z,2.50
2023-01-20T01:26:07.117Z,2.50
2023-01-20T01:28:35.375Z,2.50
2023-01-20T01:31:03.907Z,2.50
2023-01-20T01:33:32.256Z,2.50
2023-01-20T01:36:01.654Z,2.50
2023-01-20T01:38:31.361Z,2.50
2023-01-20T01:40:59.669Z,2.50
2023-01-20T01:43:29.227Z,2.50
2023-01-20T01:45:57.615Z,2.50
2023-01-20T01:48:27.585Z,2.50
2023-01-20T01:50:57.784Z,2.50
2023-01-20T01:53:26.839Z,2.50
2023-01-20T01:55:59.235Z,2.50
2023-01-20T01:58:29.256Z,2.50
2023-01-20T02:00:57.606Z,2.50
2023-01-20T02:03:25.910Z,2.50
2023-01-20T02:05:54.267Z,2.60
2023-01-20T02:08:22.634Z,2.60
2023-01-20T02:10:50.950Z,2.60
2023-01-20T02:13:20.747Z,2.60
2023-01-20T02:15:53.271Z,2.60
2023-01-20T02:18:36.782Z,2.60
2023-01-20T02:21:51.294Z,2.60
2023-01-20T02:25:00.969Z,2.60
2023-01-20T02:27:49.775Z,2.60
2023-01-20T02:30:55.762Z,2.60
2023-01-20T02:33:28.960Z,2.60
2023-01-20T02:35:59.875Z,2.60
2023-01-20T02:38:32.717Z,2.60
2023-01-20T02:41:07.989Z,2.50
2023-01-20T02:43:39.514Z,2.50
2023-01-20T02:46:12.673Z,2.50
2023-01-20T02:48:44.436Z,2.50
2023-01-20T02:51:15.501Z,2.50
2023-01-20T02:53:48.690Z,2.40
2023-01-20T02:56:17.061Z,2.50
2023-01-20T02:58:49.741Z,2.50
2023-01-20T03:01:21.694Z,2.40
2023-01-20T03:03:51.523Z,2.40
2023-01-20T03:06:22.482Z,2.40
2023-01-20T03:08:52.435Z,2.50
2023-01-20T03:11:20.767Z,2.40
2023-01-20T03:13:51.894Z,2.40
2023-01-20T03:16:22.165Z,2.40
2023-01-20T03:18:51.943Z,2.30
2023-01-20T03:21:20.222Z,2.30
2023-01-20T03:23:53.277Z,2.30
2023-01-20T03:26:22.967Z,2.20
2023-01-20T03:28:51.475Z,2.20
2023-01-20T03:31:22.376Z,2.20
2023-01-20T03:33:54.176Z,2.20
2023-01-20T03:36:23.497Z,2.30
2023-01-20T03:38:51.860Z,2.30
2023-01-20T03:41:27.324Z,2.30
2023-01-20T03:43:59.020Z,2.30
2023-01-20T03:46:32.040Z,2.30
2023-01-20T03:49:05.845Z,2.30
2023-01-20T03:51:36.240Z,2.30
2023-01-20T03:54:08.020Z,2.30
2023-01-20T03:56:39.017Z,2.30
2023-01-20T03:59:07.350Z,2.20
2023-01-20T04:01:37.587Z,2.20
2023-01-20T04:04:09.885Z,2.30
2023-01-20T04:06:38.188Z,2.30
2023-01-20T04:09:08.520Z,2.20
2023-01-20T04:11:36.780Z,2.20
2023-01-20T04:14:05.121Z,2.20
2023-01-20T04:16:33.388Z,2.20
2023-01-20T04:19:02.006Z,2.10
2023-01-20T04:21:35.187Z,2.10
2023-01-20T04:24:06.498Z,2.10
2023-01-20T04:26:35.057Z,2.00
2023-01-20T04:29:10.544Z,2.10
2023-01-20T04:31:41.082Z,2.00
2023-01-20T04:34:12.253Z,2.10
2023-01-20T04:36:41.919Z,2.10
2023-01-20T04:39:10.288Z,2.10
2023-01-20T04:41:38.609Z,2.10
2023-01-20T04:44:07.388Z,2.10
2023-01-20T04:46:37.009Z,2.10
2023-01-20T04:49:05.565Z,2.10
2023-01-20T04:51:34.263Z,2.10
2023-01-20T04:54:04.015Z,2.10
2023-01-20T04:56:32.410Z,2.20
2023-01-20T04:59:00.786Z,2.20
2023-01-20T05:01:29.623Z,2.20
2023-01-20T05:03:57.980Z,2.20
2023-01-20T05:06:26.334Z,2.20
2023-01-20T05:08:54.727Z,2.30
2023-01-20T05:11:24.451Z,2.30
2023-01-20T05:13:52.699Z,2.30
2023-01-20T05:16:24.958Z,2.30
2023-01-20T05:18:53.290Z,2.30
2023-01-20T05:21:21.646Z,2.30
2023-01-20T05:23:49.975Z,2.30
2023-01-20T05:26:18.213Z,2.30
2023-01-20T05:28:47.954Z,2.30
2023-01-20T05:31:16.351Z,2.30
2023-01-20T05:33:44.774Z,2.30
2023-01-20T05:36:13.444Z,2.30
2023-01-20T05:38:41.789Z,2.40
2023-01-20T05:41:10.888Z,2.40
2023-01-20T05:43:39.257Z,2.30
2023-01-20T05:46:09.007Z,2.30
2023-01-20T05:48:37.319Z,2.30
2023-01-20T05:51:05.817Z,2.30
2023-01-20T05:53:34.111Z,2.30
2023-01-20T05:56:02.846Z,2.30
2023-01-20T05:58:31.308Z,2.30
2023-01-20T06:01:07.980Z,2.30
2023-01-20T06:03:36.387Z,2.30
2023-01-20T06:06:05.796Z,2.30
2023-01-20T06:08:34.113Z,2.30
2023-01-20T06:11:02.477Z,2.30
2023-01-20T06:13:30.795Z,2.30
2023-01-20T06:15:59.470Z,2.30
2023-01-20T06:18:30.126Z,2.40
2023-01-20T06:20:58.894Z,2.30
2023-01-20T06:23:27.292Z,2.30
2023-01-20T06:26:00.781Z,2.30
2023-01-20T06:28:29.239Z,2.30
2023-01-20T06:31:02.216Z,2.20
2023-01-20T06:33:32.323Z,2.20
2023-01-20T06:36:00.714Z,2.20
2023-01-20T06:38:31.384Z,2.30
2023-01-20T06:41:00.062Z,2.20
2023-01-20T06:43:29.966Z,2.30
2023-01-20T06:46:01.588Z,2.30
2023-01-20T06:48:31.588Z,2.20
2023-01-20T06:51:03.048Z,2.20
2023-01-20T06:53:31.492Z,2.20
2023-01-20T06:56:00.661Z,2.20
2023-01-20T06:58:30.168Z,2.20
2023-01-20T07:00:58.917Z,2.20
2023-01-20T07:03:27.302Z,2.20
2023-01-20T07:06:00.531Z,2.20
2023-01-20T07:08:28.861Z,2.20
2023-01-20T07:10:57.355Z,2.20
2023-01-20T07:13:25.922Z,2.20
2023-01-20T07:15:54.555Z,2.10
2023-01-20T07:18:22.842Z,2.10
2023-01-20T07:20:56.458Z,2.10
2023-01-20T07:23:25.052Z,2.00
2023-01-20T07:25:59.598Z,2.00
2023-01-20T07:28:27.942Z,2.00
2023-01-20T07:30:56.599Z,2.00
2023-01-20T07:33:24.965Z,2.00
2023-01-20T07:35:54.231Z,2.00
2023-01-20T07:38:23.960Z,2.00
2023-01-20T07:40:52.267Z,2.00
2023-01-20T07:43:20.563Z,2.00
2023-01-20T07:45:48.926Z,2.00
2023-01-20T07:48:17.292Z,2.00
2023-01-20T07:50:45.559Z,1.90
2023-01-20T07:53:13.859Z,2.00
2023-01-20T07:55:43.581Z,2.00
2023-01-20T07:58:11.859Z,2.00
2023-01-20T08:00:41.169Z,2.00
2023-01-20T08:03:09.619Z,1.90
2023-01-20T08:05:37.879Z,2.00
2023-01-20T08:08:06.676Z,2.00
2023-01-20T08:10:35.007Z,2.00
2023-01-20T08:13:04.770Z,1.90
2023-01-20T08:15:33.096Z,2.00
2023-01-20T08:18:01.414Z,2.00
2023-01-20T08:20:30.032Z,1.90
2023-01-20T08:22:58.339Z,1.90
2023-01-20T08:25:26.606Z,2.00
2023-01-20T08:27:54.925Z,2.00
2023-01-20T08:30:24.887Z,2.10
2023-01-20T08:32:53.240Z,2.10
2023-01-20T08:35:21.528Z,2.10
2023-01-20T08:37:49.882Z,2.00
2023-01-20T08:40:18.606Z,1.90
2023-01-20T08:42:47.079Z,2.00
2023-01-20T08:45:15.868Z,2.00
2023-01-20T08:47:46.229Z,2.00
2023-01-20T08:50:15.439Z,2.00
2023-01-20T08:52:44.064Z,2.10
2023-01-20T08:55:12.465Z,2.10
2023-01-20T08:57:40.867Z,2.10
2023-01-20T09:00:11.524Z,2.10
2023-01-20T09:02:40.932Z,2.20
2023-01-20T09:05:12.189Z,2.20
2023-01-20T09:07:40.464Z,2.20
2023-01-20T09:10:10.500Z,2.30
2023-01-20T09:12:39.479Z,2.30
2023-01-20T09:15:09.609Z,2.30
2023-01-20T09:17:37.934Z,2.30
2023-01-20T09:20:07.628Z,2.40
2023-01-20T09:22:37.327Z,2.30
2023-01-20T09:25:07.108Z,2.40
2023-01-20T09:27:35.377Z,2.40
2023-01-20T09:30:03.706Z,2.40
2023-01-20T09:32:32.747Z,2.50
2023-01-20T09:35:01.463Z,2.50
2023-01-20T09:37:47.429Z,2.40
2023-01-20T09:40:37.032Z,2.30
2023-01-20T09:43:26.567Z,2.20
2023-01-20T09:45:57.837Z,2.30
2023-01-20T09:48:49.794Z,2.40
2023-01-20T09:51:38.399Z,2.40
2023-01-20T09:54:09.685Z,2.50
2023-01-20T09:56:42.829Z,2.60
2023-01-20T09:59:13.156Z,2.60
2023-01-20T10:01:44.668Z,2.60
2023-01-20T10:04:16.198Z,2.60
2023-01-20T10:06:46.045Z,2.60
2023-01-20T10:09:21.244Z,2.70
2023-01-20T10:11:50.984Z,2.60
2023-01-20T10:14:23.000Z,2.60
2023-01-20T10:16:55.104Z,2.50
2023-01-20T10:19:28.086Z,2.40
2023-01-20T10:22:03.757Z,2.40
2023-01-20T10:24:33.807Z,2.40
2023-01-20T10:27:04.576Z,2.40
2023-01-20T10:29:36.438Z,2.50
2023-01-20T10:32:07.154Z,2.60
2023-01-20T10:34:40.237Z,2.70
2023-01-20T10:37:10.643Z,2.60
2023-01-20T10:39:44.378Z,2.50
2023-01-20T10:42:15.296Z,2.40
2023-01-20T10:44:43.627Z,2.40
2023-01-20T10:47:39.526Z,2.40
2023-01-20T10:50:48.893Z,2.30
2023-01-20T10:53:43.736Z,2.30
2023-01-20T10:56:31.703Z,2.40
2023-01-20T10:59:03.775Z,2.50
2023-01-20T11:01:32.079Z,2.70
2023-01-20T11:04:00.453Z,2.80
2023-01-20T11:06:28.823Z,2.90
2023-01-20T11:08:57.063Z,2.90
2023-01-20T11:11:26.277Z,2.90
2023-01-20T11:13:54.822Z,3.00
2023-01-20T11:16:28.767Z,2.90
2023-01-20T11:18:59.712Z,2.90
2023-01-20T11:21:29.163Z,2.90
2023-01-20T11:23:57.871Z,2.60
2023-01-20T11:26:28.423Z,2.50
2023-01-20T11:28:58.584Z,2.50
2023-01-20T11:31:39.552Z,2.60
2023-01-20T11:34:23.234Z,2.60
2023-01-20T11:36:51.711Z,2.80
2023-01-20T11:39:27.784Z,2.90
2023-01-20T11:42:15.020Z,3.10
2023-01-20T11:44:44.540Z,3.20
2023-01-20T11:47:27.923Z,3.30
2023-01-20T11:50:22.063Z,3.40
2023-01-20T11:52:50.780Z,3.40
2023-01-20T11:55:21.201Z,3.50
2023-01-20T11:57:52.727Z,3.40
2023-01-20T12:00:37.332Z,3.30
2023-01-20T12:03:25.698Z,3.20
2023-01-20T12:05:56.649Z,2.90
2023-01-20T12:08:28.158Z,2.70
2023-01-20T12:10:57.350Z,2.70
2023-01-20T12:13:28.959Z,2.70
2023-01-20T12:15:59.074Z,2.60
2023-01-20T12:18:34.372Z,2.60
2023-01-20T12:21:08.029Z,2.50
2023-01-20T12:23:45.526Z,2.40
2023-01-20T12:26:14.788Z,2.40
2023-01-20T12:28:48.830Z,2.40
2023-01-20T12:31:20.116Z,2.30
2023-01-20T12:33:50.700Z,2.30
2023-01-20T12:36:46.411Z,2.30
2023-01-20T12:39:46.167Z,2.30
2023-01-20T12:43:00.067Z,2.30
2023-01-20T12:45:39.545Z,2.40
2023-01-20T12:48:21.322Z,2.50
2023-01-20T12:51:03.226Z,2.60
2023-01-20T12:53:54.090Z,2.70
2023-01-20T12:56:28.457Z,2.80
2023-01-20T12:59:01.445Z,2.90
2023-01-20T13:01:42.713Z,3.00
2023-01-20T13:04:44.668Z,3.00
2023-01-20T13:07:40.770Z,2.90
2023-01-20T13:10:22.602Z,2.90
2023-01-20T13:12:55.194Z,2.90
2023-01-20T13:15:27.941Z,3.00
2023-01-20T13:18:28.934Z,3.10
2023-01-20T13:20:57.310Z,3.20
2023-01-20T13:23:28.764Z,3.30
2023-01-20T13:25:57.811Z,3.40
2023-01-20T13:28:27.651Z,3.50
2023-01-20T13:30:57.387Z,3.50
2023-01-20T13:33:34.786Z,3.40
2023-01-20T13:36:14.209Z,3.20
2023-01-20T13:38:43.839Z,3.20
2023-01-20T13:41:12.466Z,3.00
2023-01-20T13:43:58.659Z,2.90
2023-01-20T13:46:50.135Z,2.90
2023-01-20T13:49:28.527Z,2.90
2023-01-20T13:51:56.838Z,2.80
2023-01-20T13:54:49.058Z,2.80
2023-01-20T13:57:37.232Z,2.80
2023-01-20T14:00:16.675Z,2.90
2023-01-20T14:02:45.306Z,2.90
2023-01-20T14:05:33.470Z,2.90
2023-01-20T14:08:01.802Z,2.90
2023-01-20T14:10:31.437Z,3.00
2023-01-20T14:12:59.715Z,3.10
2023-01-20T14:15:35.284Z,3.20
2023-01-20T14:18:03.757Z,3.20
2023-01-20T14:20:32.050Z,3.30
2023-01-20T14:23:39.385Z,3.30
2023-01-20T14:26:11.887Z,3.40
2023-01-20T14:28:50.195Z,3.40
2023-01-20T14:31:29.691Z,3.30
2023-01-20T14:34:00.393Z,3.20
2023-01-20T14:36:31.788Z,3.20
2023-01-20T14:39:03.997Z,3.00
2023-01-20T14:41:47.364Z,3.00
2023-01-20T14:44:19.888Z,3.00
2023-01-20T14:46:50.112Z,3.00
2023-01-20T14:49:19.957Z,3.00
2023-01-20T14:51:48.764Z,3.10
2023-01-20T14:54:40.585Z,3.10
2023-01-20T14:57:26.276Z,3.10
2023-01-20T15:00:20.646Z,3.20
2023-01-20T15:03:09.217Z,3.20
2023-01-20T15:05:40.213Z,3.20
2023-01-20T15:08:29.601Z,3.20
2023-01-20T15:11:21.949Z,3.20
2023-01-20T15:14:09.491Z,3.20
2023-01-20T15:16:51.872Z,3.20
2023-01-20T15:19:31.431Z,3.20
2023-01-20T15:22:23.606Z,3.20
2023-01-20T15:24:51.992Z,3.20
2023-01-20T15:27:27.593Z,3.10
2023-01-20T15:30:21.173Z,3.00
2023-01-20T15:32:50.043Z,3.00
2023-01-20T15:35:20.995Z,3.00
2023-01-20T15:37:49.436Z,3.00
2023-01-20T15:40:19.530Z,3.10
2023-01-20T15:42:48.354Z,3.00
2023-01-20T15:45:18.539Z,2.90
2023-01-20T15:47:47.596Z,2.90
2023-01-20T15:50:18.659Z,2.80
2023-01-20T15:52:47.069Z,2.80
2023-01-20T15:55:15.675Z,2.80
2023-01-20T15:57:44.093Z,2.80
2023-01-20T16:00:19.637Z,2.80
2023-01-20T16:02:48.065Z,2.80
2023-01-20T16:05:17.856Z,2.70
2023-01-20T16:07:47.735Z,2.70
2023-01-20T16:10:18.294Z,2.70
2023-01-20T16:12:47.103Z,2.70
2023-01-20T16:15:18.114Z,2.70
2023-01-20T16:17:46.511Z,2.60
2023-01-20T16:20:22.848Z,2.60
2023-01-20T16:22:51.594Z,2.60
2023-01-20T16:25:20.200Z,2.50
2023-01-20T16:27:48.534Z,2.50
2023-01-20T16:30:24.029Z,2.40
2023-01-20T16:32:52.355Z,2.30
2023-01-20T16:35:21.327Z,2.20
2023-01-20T16:37:49.731Z,2.10
2023-01-20T16:40:20.011Z,2.00
2023-01-20T16:42:48.712Z,1.90
2023-01-20T16:45:27.668Z,1.90
2023-01-20T16:47:56.096Z,1.80
2023-01-20T16:50:27.823Z,1.70
2023-01-20T16:52:56.197Z,1.60
2023-01-20T16:55:25.020Z,1.70
2023-01-20T16:57:53.316Z,1.70
2023-01-20T17:00:28.931Z,1.70
2023-01-20T17:02:57.559Z,1.80
2023-01-20T17:05:25.974Z,1.80
2023-01-20T17:07:54.719Z,1.90
2023-01-20T17:10:23.050Z,1.90
2023-01-20T17:12:52.743Z,1.90
2023-01-20T17:15:21.068Z,1.90
2023-01-20T17:17:51.069Z,1.80
2023-01-20T17:20:19.619Z,1.60
2023-01-20T17:22:48.011Z,1.50
2023-01-20T17:25:17.892Z,1.50
2023-01-20T17:27:46.334Z,1.40
2023-01-20T17:30:16.130Z,1.40
2023-01-20T17:32:47.371Z,1.40
2023-01-20T17:35:17.940Z,1.30
2023-01-20T17:37:46.370Z,1.30
2023-01-20T17:40:15.997Z,1.30
2023-01-20T17:42:44.973Z,1.30
2023-01-20T17:45:13.558Z,1.40
2023-01-20T17:47:41.865Z,1.40
2023-01-20T17:50:11.791Z,1.30
2023-01-20T17:52:41.768Z,1.30
2023-01-20T17:55:11.595Z,1.20
2023-01-20T17:57:39.877Z,1.20
2023-01-20T18:00:10.081Z,1.20
2023-01-20T18:02:38.422Z,1.20
2023-01-20T18:05:08.065Z,1.20
2023-01-20T18:07:36.373Z,1.20
2023-01-20T18:10:06.775Z,1.10
2023-01-20T18:12:35.984Z,1.10
2023-01-20T18:15:04.578Z,1.10
2023-01-20T18:17:34.429Z,1.20
2023-01-20T18:20:03.045Z,1.20
2023-01-20T18:22:31.323Z,1.10
2023-01-20T18:25:00.009Z,1.10
2023-01-20T18:27:29.735Z,1.10
2023-01-20T18:29:57.997Z,1.00
2023-01-20T18:32:26.372Z,1.00
2023-01-20T18:34:54.813Z,1.00
2023-01-20T18:37:23.206Z,1.00
2023-01-20T18:39:51.511Z,1.00
2023-01-20T18:42:19.812Z,0.90
2023-01-20T18:44:49.485Z,0.90
2023-01-20T18:47:17.819Z,0.90
2023-01-20T18:49:46.098Z,0.90
2023-01-20T18:52:14.359Z,0.80
2023-01-20T18:54:42.781Z,0.70
2023-01-20T18:57:11.094Z,0.60
2023-01-20T18:59:40.444Z,0.50
2023-01-20T19:02:12.803Z,0.40
2023-01-20T19:04:41.173Z,0.40
2023-01-20T19:07:09.995Z,0.40
2023-01-20T19:09:38.374Z,0.40
2023-01-20T19:12:07.190Z,0.30
2023-01-20T19:14:35.532Z,0.30
2023-01-20T19:17:04.032Z,0.30
2023-01-20T19:19:33.669Z,0.30
2023-01-20T19:22:02.008Z,0.30
2023-01-20T19:24:30.399Z,0.30
2023-01-20T19:27:00.311Z,0.30
2023-01-20T19:29:29.556Z,0.30
2023-01-20T19:31:57.863Z,0.30
2023-01-20T19:34:27.076Z,0.30
2023-01-20T19:36:57.531Z,0.40
2023-01-20T19:39:25.865Z,0.40
2023-01-20T19:41:54.353Z,0.40
2023-01-20T19:44:22.730Z,0.40
2023-01-20T19:46:50.985Z,0.40
2023-01-20T19:49:19.441Z,0.30
2023-01-20T19:51:47.760Z,0.40
2023-01-20T19:54:17.883Z,0.30
2023-01-20T19:56:46.206Z,0.20
2023-01-20T19:59:15.120Z,0.10
2023-01-20T20:01:43.489Z,0.10
2023-01-20T20:04:12.990Z,0.10
2023-01-20T20:06:46.966Z,0.10
2023-01-20T20:09:19.195Z,0.10
2023-01-20T20:11:47.674Z,0.00
2023-01-20T20:14:17.526Z,0.00
2023-01-20T20:16:45.946Z,0.00
2023-01-20T20:19:16.013Z,0.00
2023-01-20T20:21:44.413Z,0.00
2023-01-20T20:24:13.146Z,0.00
2023-01-20T20:26:44.488Z,0.00
2023-01-20T20:29:13.067Z,0.00
2023-01-20T20:31:41.463Z,0.10
2023-01-20T20:34:12.616Z,0.10
2023-01-20T20:36:40.984Z,0.10
2023-01-20T20:39:09.320Z,0.10
2023-01-20T20:41:37.715Z,0.10
2023-01-20T20:44:07.443Z,0.00
2023-01-20T20:46:35.840Z,-0.10
2023-01-20T20:49:04.407Z,-0.10
2023-01-20T20:51:34.438Z,-0.10
2023-01-20T20:54:03.981Z,-0.10
2023-01-20T20:56:32.785Z,-0.10
2023-01-20T20:59:03.217Z,-0.20
2023-01-20T21:01:34.563Z,-0.20
2023-01-20T21:04:03.272Z,-0.20
2023-01-20T21:06:31.752Z,-0.20
2023-01-20T21:09:00.118Z,-0.20
2023-01-20T21:11:28.583Z,-0.20
2023-01-20T21:13:56.922Z,-0.20
2023-01-20T21:16:25.995Z,-0.20
2023-01-20T21:18:57.062Z,-0.20
2023-01-20T21:21:25.655Z,-0.30
2023-01-20T21:23:55.220Z,-0.30
2023-01-20T21:26:24.078Z,-0.30
2023-01-20T21:28:53.044Z,-0.30
2023-01-20T21:31:23.008Z,-0.30
2023-01-20T21:33:55.169Z,-0.20
2023-01-20T21:36:23.522Z,-0.30
2023-01-20T21:38:51.940Z,-0.30
2023-01-20T21:41:20.286Z,-0.30
2023-01-20T21:44:06.745Z,-0.30
2023-01-20T21:46:38.791Z,-0.20
2023-01-20T21:49:27.082Z,-0.20
2023-01-20T21:52:12.952Z,-0.10
2023-01-20T21:54:41.668Z,-0.20
2023-01-20T21:57:10.123Z,-0.20
2023-01-20T21:59:39.150Z,-0.20
2023-01-20T22:02:07.528Z,-0.20
2023-01-20T22:04:37.237Z,-0.20
2023-01-20T22:07:06.751Z,-0.20
2023-01-20T22:09:35.156Z,-0.20
2023-01-20T22:12:03.777Z,-0.30
2023-01-20T22:14:32.564Z,-0.30
2023-01-20T22:17:00.878Z,-0.40
2023-01-20T22:19:29.289Z,-0.40
2023-01-20T22:21:58.979Z,-0.50
2023-01-20T22:24:27.362Z,-0.50
2023-01-20T22:26:55.738Z,-0.50
2023-01-20T22:29:24.283Z,-0.50
2023-01-20T22:31:53.494Z,-0.40
2023-01-20T22:34:21.982Z,-0.40
2023-01-20T22:36:50.682Z,-0.40
2023-01-20T22:39:20.640Z,-0.50
2023-01-20T22:41:49.014Z,-0.50
2023-01-20T22:44:17.525Z,-0.50
2023-01-20T22:46:45.853Z,-0.50
2023-01-20T22:49:14.142Z,-0.40
2023-01-20T22:51:42.402Z,-0.50
2023-01-20T22:54:11.736Z,-0.40
2023-01-20T22:56:41.499Z,-0.40
2023-01-20T22:59:11.032Z,-0.40
2023-01-20T23:01:39.336Z,-0.30
2023-01-20T23:04:07.789Z,-0.30
2023-01-20T23:06:36.783Z,-0.40
2023-01-20T23:09:06.778Z,-0.40
2023-01-20T23:11:36.344Z,-0.40
2023-01-20T23:14:06.557Z,-0.40
2023-01-20T23:16:34.959Z,-0.30
2023-01-20T23:19:03.614Z,-0.30
2023-01-20T23:21:31.971Z,-0.40
2023-01-20T23:24:00.347Z,-0.30
2023-01-20T23:26:30.616Z,-0.40
2023-01-20T23:28:59.047Z,-0.40
2023-01-20T23:31:33.261Z,-0.40
2023-01-20T23:34:01.627Z,-0.50
2023-01-20T23:36:30.021Z,-0.50
2023-01-20T23:38:58.419Z,-0.50
2023-01-20T23:41:26.665Z,-0.40
2023-01-20T23:43:54.974Z,-0.40
2023-01-20T23:46:23.381Z,-0.40
2023-01-20T23:48:53.068Z,-0.50
2023-01-20T23:51:21.529Z,-0.50
2023-01-20T23:53:49.841Z,-0.50
2023-01-20T23:56:20.025Z,-0.60
2023-01-20T23:58:48.510Z,-0.60
